Time;durP1;ratioP1;P1;durP2;ratioP2;P2;SDS_P1;SDS_P2;PMS_P1;PMS_P2;Temp;Humidity;BMP_temperature;BMP_pressure;BME280_temperature;BME280_humidity;BME280_pressure;Samples;Min_cycle;Max_cycle;Signal;HPM_P1;HPM_P2
2022/01/13 00:01:13;;;;;;;53.43;17.97;;;5.10;99.90;;;;;;5056429;28;20200;-40
2022/01/13 00:03:40;;;;;;;46.47;16.97;;;5.10;99.90;;;;;;5048718;28;20948;-43
2022/01/13 00:06:08;;;;;;;54.37;17.60;;;5.10;99.90;;;;;;5056693;28;20742;-41
2022/01/13 00:08:35;;;;;;;55.77;17.13;;;5.10;99.90;;;;;;5059987;28;20194;-42
2022/01/13 00:11:02;;;;;;;62.53;17.90;;;5.10;99.90;;;;;;5063538;28;20225;-45
2022/01/13 00:13:35;;;;;;;56.37;17.50;;;5.10;99.90;;;;;;5040373;28;20195;-41
2022/01/13 00:16:24;;;;;;;53.87;17.70;;;5.10;99.90;;;;;;5048853;28;20202;-45
2022/01/13 00:19:04;;;;;;;54.30;17.03;;;5.10;99.90;;;;;;5047371;28;20277;-44
2022/01/13 00:21:37;;;;;;;61.57;18.57;;;5.10;99.90;;;;;;5043611;28;20198;-40
2022/01/13 00:24:05;;;;;;;60.73;17.13;;;5.20;99.90;;;;;;5054259;28;20231;-42
2022/01/13 00:26:33;;;;;;;52.50;17.77;;;5.20;99.90;;;;;;5060211;28;20233;-41
2022/01/13 00:29:02;;;;;;;59.60;17.23;;;5.20;99.90;;;;;;5064438;28;20248;-41
2022/01/13 00:31:33;;;;;;;58.43;19.00;;;5.20;99.90;;;;;;5043356;28;20230;-40
2022/01/13 00:34:02;;;;;;;53.53;17.00;;;5.20;99.90;;;;;;5060708;28;20218;-45
2022/01/13 00:36:34;;;;;;;41.73;14.93;;;5.20;99.90;;;;;;5060151;28;20199;-41
2022/01/13 00:39:01;;;;;;;42.77;15.70;;;5.20;99.90;;;;;;5059550;28;20199;-43
2022/01/13 00:41:29;;;;;;;51.20;16.30;;;5.20;99.90;;;;;;5041542;28;20192;-41
2022/01/13 00:43:56;;;;;;;51.13;16.10;;;5.30;99.90;;;;;;5044859;28;20707;-43
2022/01/13 00:46:26;;;;;;;61.30;17.93;;;5.30;99.90;;;;;;5041738;28;20253;-43
2022/01/13 00:48:54;;;;;;;55.23;17.17;;;5.30;99.90;;;;;;5057175;28;20202;-42
2022/01/13 00:51:22;;;;;;;71.60;15.63;;;5.30;99.90;;;;;;5051293;28;20219;-41
2022/01/13 00:53:51;;;;;;;58.53;16.57;;;5.30;99.90;;;;;;5043324;28;20214;-43
2022/01/13 00:56:18;;;;;;;57.37;18.73;;;5.30;99.90;;;;;;5043123;28;20699;-44
2022/01/13 00:58:45;;;;;;;50.33;17.37;;;5.30;99.90;;;;;;5042442;28;20200;-44
2022/01/13 01:01:12;;;;;;;50.07;16.33;;;5.30;99.90;;;;;;5038261;28;20214;-43
2022/01/13 01:03:39;;;;;;;57.07;18.00;;;5.30;99.90;;;;;;5049328;28;20218;-46
2022/01/13 01:06:06;;;;;;;52.17;17.23;;;5.40;99.90;;;;;;5045640;28;20203;-43
2022/01/13 01:08:34;;;;;;;66.60;17.93;;;5.30;99.90;;;;;;5040329;28;20202;-48
2022/01/13 01:11:03;;;;;;;62.63;16.90;;;5.40;99.90;;;;;;5049361;28;20222;-46
2022/01/13 01:13:33;;;;;;;55.43;16.50;;;5.40;99.90;;;;;;5059196;28;20198;-43
2022/01/13 01:16:04;;;;;;;66.23;17.77;;;5.40;99.90;;;;;;5044830;28;20248;-42
2022/01/13 01:18:38;;;;;;;53.83;18.57;;;5.40;99.90;;;;;;5044001;28;20806;-44
2022/01/13 01:26:45;;;;;;;67.50;19.57;;;5.40;99.90;;;;;;5057421;28;20303;-41
2022/01/13 01:29:21;;;;;;;66.67;18.20;;;5.40;99.90;;;;;;5050167;28;20202;-45
2022/01/13 01:31:51;;;;;;;67.00;18.83;;;5.40;99.90;;;;;;5042450;28;20214;-44
2022/01/13 01:34:31;;;;;;;68.40;18.90;;;5.50;99.90;;;;;;5044471;28;20222;-41
2022/01/13 01:36:58;;;;;;;73.47;19.73;;;5.50;99.90;;;;;;5046882;28;20207;-43
2022/01/13 01:39:25;;;;;;;62.00;18.70;;;5.50;99.90;;;;;;5043791;28;20203;-44
2022/01/13 01:41:55;;;;;;;49.87;16.40;;;5.50;99.90;;;;;;5062502;28;20194;-41
2022/01/13 01:44:29;;;;;;;57.73;18.83;;;5.50;99.90;;;;;;5060687;28;20214;-42
2022/01/13 01:46:58;;;;;;;80.00;20.57;;;5.50;99.90;;;;;;5059156;28;20203;-42
2022/01/13 01:49:26;;;;;;;60.80;17.90;;;5.50;99.90;;;;;;5037703;28;20298;-44
2022/01/13 01:51:55;;;;;;;66.17;18.73;;;5.50;99.90;;;;;;5047662;28;20250;-42
2022/01/13 01:54:23;;;;;;;72.53;20.17;;;5.50;99.90;;;;;;5047901;28;20238;-42
2022/01/13 01:56:49;;;;;;;58.00;18.23;;;5.50;99.90;;;;;;5053107;28;20190;-43
2022/01/13 01:59:21;;;;;;;88.43;19.03;;;5.50;99.90;;;;;;5061604;28;20217;-41
2022/01/13 02:01:51;;;;;;;66.87;18.67;;;5.50;99.90;;;;;;5043544;28;20207;-43
2022/01/13 02:04:18;;;;;;;77.40;18.60;;;5.60;99.90;;;;;;5036711;28;20229;-42
2022/01/13 02:06:45;;;;;;;74.20;20.27;;;5.60;99.90;;;;;;5049466;28;20211;-42
2022/01/13 02:09:15;;;;;;;71.67;19.37;;;5.60;99.90;;;;;;5047660;28;20214;-43
2022/01/13 02:11:44;;;;;;;74.67;19.77;;;5.60;99.90;;;;;;5040712;28;20290;-46
2022/01/13 02:14:31;;;;;;;78.03;19.80;;;5.60;99.90;;;;;;5054721;28;20262;-41
2022/01/13 02:17:03;;;;;;;60.67;19.03;;;5.60;99.90;;;;;;5043214;28;20207;-42
2022/01/13 02:19:31;;;;;;;63.87;19.07;;;5.60;99.90;;;;;;5040836;28;20203;-41
2022/01/13 02:22:00;;;;;;;59.03;19.10;;;5.60;99.90;;;;;;5050969;28;20191;-45
2022/01/13 02:24:28;;;;;;;65.73;19.43;;;5.60;99.90;;;;;;5043806;28;20223;-45
2022/01/13 02:26:55;;;;;;;66.13;19.63;;;5.60;99.90;;;;;;5042931;28;20290;-41
2022/01/13 02:29:22;;;;;;;59.57;19.23;;;5.60;99.90;;;;;;5041163;28;20199;-41
2022/01/13 02:31:49;;;;;;;55.07;19.03;;;5.60;99.90;;;;;;5044415;28;20215;-45
2022/01/13 02:34:17;;;;;;;70.27;19.33;;;5.60;99.90;;;;;;5046056;28;20269;-43
2022/01/13 02:36:46;;;;;;;68.40;19.63;;;5.60;99.90;;;;;;5032923;28;20893;-43
2022/01/13 02:39:14;;;;;;;68.20;18.43;;;5.60;99.90;;;;;;5055719;28;20209;-42
2022/01/13 02:41:41;;;;;;;61.43;18.57;;;5.60;99.90;;;;;;5044415;28;20191;-43
2022/01/13 02:44:14;;;;;;;58.23;18.47;;;5.70;99.90;;;;;;5047072;28;20223;-43
2022/01/13 02:47:07;;;;;;;54.27;17.63;;;5.70;99.90;;;;;;5043945;28;20226;-43
2022/01/13 02:49:34;;;;;;;60.30;16.93;;;5.70;99.90;;;;;;5055964;28;20195;-41
2022/01/13 02:52:02;;;;;;;63.73;18.60;;;5.70;99.90;;;;;;5045139;28;20244;-41
2022/01/13 02:54:30;;;;;;;60.53;19.27;;;5.70;99.90;;;;;;5055660;28;20215;-39
2022/01/13 02:56:57;;;;;;;62.40;17.77;;;5.70;99.90;;;;;;5046774;28;20576;-43
2022/01/13 02:59:24;;;;;;;68.23;18.97;;;5.70;99.90;;;;;;5044151;28;20191;-41
2022/01/13 03:01:51;;;;;;;59.40;17.87;;;5.70;99.90;;;;;;5059018;28;20656;-41
2022/01/13 03:04:17;;;;;;;58.57;17.90;;;5.70;99.90;;;;;;5051625;28;20226;-41
2022/01/13 03:06:44;;;;;;;56.93;17.53;;;5.70;99.90;;;;;;5032025;28;20265;-42
2022/01/13 03:09:13;;;;;;;55.50;16.83;;;5.70;99.90;;;;;;5053464;28;20556;-40
2022/01/13 03:11:43;;;;;;;50.07;15.73;;;5.70;99.90;;;;;;5048009;28;20218;-40
2022/01/13 03:14:11;;;;;;;47.47;17.47;;;5.70;99.90;;;;;;5046618;28;20621;-40
2022/01/13 03:16:39;;;;;;;54.87;16.90;;;5.80;99.90;;;;;;5042692;28;20966;-40
2022/01/13 03:19:06;;;;;;;51.83;17.50;;;5.70;99.90;;;;;;5046431;28;20203;-40
2022/01/13 03:21:33;;;;;;;59.70;17.40;;;5.70;99.90;;;;;;5041124;28;20210;-42
2022/01/13 03:24:01;;;;;;;55.70;18.43;;;5.70;99.90;;;;;;5061544;28;20219;-44
2022/01/13 03:26:27;;;;;;;65.77;19.13;;;5.80;99.90;;;;;;5045122;28;20257;-41
2022/01/13 03:29:05;;;;;;;58.37;18.83;;;5.80;99.90;;;;;;5045983;28;20211;-40
2022/01/13 03:31:32;;;;;;;56.80;17.93;;;5.80;99.90;;;;;;5042179;28;20222;-40
2022/01/13 03:33:59;;;;;;;60.30;18.70;;;5.80;99.90;;;;;;5055876;28;20777;-45
2022/01/13 03:36:26;;;;;;;64.97;19.67;;;5.80;99.90;;;;;;5043781;28;20225;-41
2022/01/13 03:38:54;;;;;;;57.90;19.50;;;5.80;99.90;;;;;;5049229;28;20230;-44
2022/01/13 03:41:22;;;;;;;63.67;20.27;;;5.80;99.90;;;;;;5050847;28;20195;-41
2022/01/13 03:43:51;;;;;;;57.67;19.47;;;5.80;99.90;;;;;;5044179;28;21275;-40
2022/01/13 03:46:19;;;;;;;63.53;19.23;;;5.80;99.90;;;;;;5057626;28;20553;-40
2022/01/13 03:48:46;;;;;;;68.97;20.73;;;5.80;99.90;;;;;;5048237;28;20191;-40
2022/01/13 03:51:13;;;;;;;60.23;19.83;;;5.80;99.90;;;;;;5045579;28;20691;-40
2022/01/13 03:54:43;;;;;;;65.10;19.13;;;5.80;99.90;;;;;;5039734;28;20211;-41
2022/01/13 03:58:18;;;;;;;63.20;18.47;;;5.80;99.90;;;;;;5048971;28;20651;-42
2022/01/13 04:01:44;;;;;;;58.33;18.40;;;5.80;99.90;;;;;;5062557;28;20193;-40
2022/01/13 04:04:11;;;;;;;59.77;18.47;;;5.80;99.90;;;;;;5064774;28;20218;-44
2022/01/13 04:06:40;;;;;;;65.17;19.33;;;5.80;99.90;;;;;;5060864;28;20783;-41
2022/01/13 04:09:10;;;;;;;48.80;16.73;;;5.80;99.90;;;;;;5037891;28;21293;-40
2022/01/13 04:11:37;;;;;;;57.10;18.37;;;5.90;99.90;;;;;;5050689;28;20212;-41
2022/01/13 04:14:05;;;;;;;56.10;17.50;;;5.90;99.90;;;;;;5059637;28;20210;-41
2022/01/13 04:16:36;;;;;;;57.30;17.97;;;5.90;99.90;;;;;;5050857;28;20723;-40
2022/01/13 04:19:05;;;;;;;48.10;16.13;;;5.90;99.90;;;;;;5054036;28;20918;-40
2022/01/13 04:21:32;;;;;;;55.03;18.23;;;5.90;99.90;;;;;;5064337;28;20229;-39
2022/01/13 04:23:59;;;;;;;58.13;19.17;;;5.90;99.90;;;;;;5045940;28;20234;-42
2022/01/13 04:26:30;;;;;;;46.40;16.90;;;5.90;99.90;;;;;;5055303;28;20206;-42
2022/01/13 04:29:05;;;;;;;58.77;17.30;;;5.90;99.90;;;;;;5044036;28;20207;-39
2022/01/13 04:31:33;;;;;;;62.23;18.20;;;5.90;99.90;;;;;;5038732;28;20312;-41
2022/01/13 04:34:00;;;;;;;56.87;17.60;;;5.90;99.90;;;;;;5044951;28;20223;-39
2022/01/13 04:36:27;;;;;;;54.03;18.57;;;5.90;99.90;;;;;;5047132;28;20230;-40
2022/01/13 04:38:54;;;;;;;58.97;18.87;;;5.90;99.90;;;;;;5053960;28;20209;-43
2022/01/13 04:41:29;;;;;;;56.33;17.90;;;5.90;99.90;;;;;;5039715;28;20230;-43
2022/01/13 04:43:57;;;;;;;51.93;18.37;;;5.90;99.90;;;;;;5045173;28;20222;-40
2022/01/13 04:46:24;;;;;;;55.37;19.17;;;5.90;99.90;;;;;;5054607;28;20182;-41
2022/01/13 04:48:52;;;;;;;46.97;15.13;;;5.90;99.90;;;;;;5047360;28;20690;-40
2022/01/13 04:51:19;;;;;;;51.03;18.03;;;5.90;99.90;;;;;;5046923;28;20226;-39
2022/01/13 04:53:46;;;;;;;48.27;17.37;;;5.90;99.90;;;;;;5061691;28;20218;-45
2022/01/13 04:56:16;;;;;;;44.93;16.27;;;5.90;99.90;;;;;;5042261;28;20203;-39
2022/01/13 04:58:43;;;;;;;49.23;16.97;;;5.90;99.90;;;;;;5050301;28;20661;-40
2022/01/13 05:01:10;;;;;;;61.17;17.97;;;5.90;99.90;;;;;;5043988;28;20198;-40
2022/01/13 05:03:36;;;;;;;47.73;16.40;;;5.90;99.90;;;;;;5050712;28;20227;-39
2022/01/13 05:06:04;;;;;;;51.57;17.90;;;5.90;99.90;;;;;;5044359;28;20194;-40
2022/01/13 05:08:31;;;;;;;50.27;18.80;;;5.90;99.90;;;;;;5047917;28;20199;-42
2022/01/13 05:10:57;;;;;;;49.23;17.50;;;5.90;99.90;;;;;;5039069;28;20223;-40
2022/01/13 05:13:24;;;;;;;53.23;17.83;;;5.90;99.90;;;;;;5054489;28;20215;-41
2022/01/13 05:15:53;;;;;;;56.77;19.80;;;5.90;99.90;;;;;;5048676;28;20321;-42
2022/01/13 05:18:27;;;;;;;51.60;17.93;;;5.90;99.90;;;;;;5047019;28;20191;-41
2022/01/13 05:21:01;;;;;;;43.37;16.27;;;5.90;99.90;;;;;;5035583;28;20198;-42
2022/01/13 05:23:29;;;;;;;53.20;18.03;;;5.90;99.90;;;;;;5045310;28;20633;-41
2022/01/13 05:25:56;;;;;;;54.77;19.23;;;5.90;99.90;;;;;;5044287;28;20359;-40
2022/01/13 05:28:24;;;;;;;57.93;18.47;;;5.90;99.90;;;;;;5034014;28;20567;-45
2022/01/13 05:30:51;;;;;;;59.17;18.40;;;5.90;99.90;;;;;;5050988;28;20207;-42
2022/01/13 05:33:18;;;;;;;43.30;17.37;;;5.90;99.90;;;;;;5048293;28;20277;-41
2022/01/13 05:36:07;;;;;;;41.17;16.57;;;5.90;99.90;;;;;;5040711;28;20222;-42
2022/01/13 05:38:35;;;;;;;59.70;18.37;;;5.90;99.90;;;;;;5047051;28;20682;-44
2022/01/13 05:41:02;;;;;;;41.00;15.33;;;5.90;99.90;;;;;;5042116;28;20198;-43
2022/01/13 05:43:28;;;;;;;46.83;16.73;;;5.90;99.90;;;;;;5034838;28;20802;-41
2022/01/13 05:45:55;;;;;;;52.13;17.17;;;5.90;99.90;;;;;;5052343;28;20218;-39
2022/01/13 05:48:22;;;;;;;57.37;18.57;;;5.90;99.90;;;;;;5050958;28;20273;-45
2022/01/13 05:50:49;;;;;;;55.33;19.07;;;5.90;99.90;;;;;;5052989;28;20207;-44
2022/01/13 05:53:16;;;;;;;58.87;20.70;;;5.90;99.90;;;;;;5045229;28;20207;-40
2022/01/13 05:55:45;;;;;;;60.00;19.90;;;5.90;99.90;;;;;;5042218;28;20203;-40
2022/01/13 05:58:11;;;;;;;52.57;19.23;;;6.00;99.90;;;;;;5039656;28;20540;-41
2022/01/13 06:00:38;;;;;;;52.73;18.93;;;6.00;99.90;;;;;;5046080;28;20190;-41
2022/01/13 06:03:05;;;;;;;51.90;19.77;;;6.00;99.90;;;;;;5049396;28;20636;-41
2022/01/13 06:05:33;;;;;;;54.07;18.67;;;6.00;99.90;;;;;;5041695;28;20955;-41
2022/01/13 06:08:00;;;;;;;61.17;17.27;;;6.00;99.90;;;;;;5046277;28;20218;-41
2022/01/13 06:10:26;;;;;;;63.20;19.73;;;6.00;99.90;;;;;;5046079;28;20194;-42
2022/01/13 06:12:54;;;;;;;62.23;21.30;;;6.00;99.90;;;;;;5048010;28;20226;-41
2022/01/13 06:15:23;;;;;;;48.37;17.73;;;6.10;99.90;;;;;;5032433;28;20226;-42
2022/01/13 06:17:51;;;;;;;48.23;18.87;;;6.10;99.90;;;;;;5049806;28;20201;-43
2022/01/13 06:20:20;;;;;;;55.43;19.10;;;6.10;99.90;;;;;;5052065;28;20570;-42
2022/01/13 06:22:48;;;;;;;59.17;21.20;;;6.10;99.90;;;;;;5049748;28;20632;-43
2022/01/13 06:25:16;;;;;;;48.90;19.87;;;6.10;99.90;;;;;;5048891;28;20221;-41
2022/01/13 06:27:43;;;;;;;60.93;19.47;;;6.20;99.90;;;;;;5042470;28;20210;-41
2022/01/13 06:30:14;;;;;;;52.70;18.67;;;6.20;99.90;;;;;;5039376;28;20205;-39
2022/01/13 06:32:41;;;;;;;51.63;19.70;;;6.20;99.90;;;;;;5041278;28;20233;-43
2022/01/13 06:35:10;;;;;;;56.53;20.57;;;6.20;99.90;;;;;;5051536;28;20222;-40
2022/01/13 06:37:36;;;;;;;48.73;18.80;;;6.20;99.90;;;;;;5048099;28;20218;-43
2022/01/13 06:40:05;;;;;;;49.97;19.30;;;6.20;99.90;;;;;;5050264;28;20535;-40
2022/01/13 06:42:32;;;;;;;56.63;19.70;;;6.20;99.90;;;;;;5039480;28;20206;-43
2022/01/13 06:44:58;;;;;;;40.73;17.63;;;6.30;99.90;;;;;;5042703;28;20226;-42
2022/01/13 06:47:26;;;;;;;51.63;19.23;;;6.30;99.90;;;;;;5047373;28;20207;-40
2022/01/13 06:49:54;;;;;;;46.27;20.47;;;6.30;99.90;;;;;;5054172;28;20563;-41
2022/01/13 06:52:20;;;;;;;52.20;21.77;;;6.30;99.90;;;;;;5044243;28;20211;-40
2022/01/13 06:54:48;;;;;;;48.00;19.03;;;6.30;99.90;;;;;;5044305;28;20241;-41
2022/01/13 06:57:16;;;;;;;49.93;19.97;;;6.30;99.90;;;;;;5042037;28;20651;-42
2022/01/13 06:59:43;;;;;;;49.00;20.57;;;6.30;99.90;;;;;;5040093;28;20222;-46
2022/01/13 07:02:09;;;;;;;46.83;18.93;;;6.30;99.90;;;;;;5057079;28;20591;-41
2022/01/13 07:04:37;;;;;;;50.67;21.27;;;6.30;99.90;;;;;;5048121;28;20215;-42
2022/01/13 07:07:04;;;;;;;44.90;18.87;;;6.40;99.90;;;;;;5054376;28;20648;-40
2022/01/13 07:09:31;;;;;;;39.40;17.60;;;6.40;99.90;;;;;;5044067;28;20210;-39
2022/01/13 07:11:58;;;;;;;48.30;20.23;;;6.40;99.90;;;;;;5047513;28;20210;-40
2022/01/13 07:14:25;;;;;;;53.53;19.80;;;6.40;99.90;;;;;;5038871;28;20211;-41
2022/01/13 07:16:52;;;;;;;45.03;19.40;;;6.40;99.90;;;;;;5040455;28;20306;-42
2022/01/13 07:19:19;;;;;;;48.53;19.83;;;6.40;99.90;;;;;;5053495;28;20192;-42
2022/01/13 07:21:47;;;;;;;47.17;18.97;;;6.40;99.90;;;;;;5048039;28;20199;-39
2022/01/13 07:24:14;;;;;;;46.20;18.97;;;6.40;99.90;;;;;;5051297;28;20758;-40
2022/01/13 07:26:42;;;;;;;45.97;18.97;;;6.40;99.90;;;;;;5045344;28;20199;-42
2022/01/13 07:29:09;;;;;;;45.60;18.63;;;6.40;99.90;;;;;;5049265;28;20255;-41
2022/01/13 07:31:36;;;;;;;41.90;17.97;;;6.40;99.90;;;;;;5036715;28;20196;-40
2022/01/13 07:34:03;;;;;;;37.73;18.07;;;6.40;99.90;;;;;;5057345;28;20222;-42
2022/01/13 07:36:30;;;;;;;43.93;17.87;;;6.40;99.90;;;;;;5049150;28;20975;-40
2022/01/13 07:38:58;;;;;;;39.23;16.93;;;6.40;99.90;;;;;;5051481;28;20203;-41
2022/01/13 07:41:25;;;;;;;34.00;16.93;;;6.40;99.90;;;;;;5044605;28;20213;-45
2022/01/13 07:43:55;;;;;;;42.43;18.97;;;6.40;99.90;;;;;;5053363;28;20211;-44
2022/01/13 07:46:23;;;;;;;41.07;18.40;;;6.40;99.90;;;;;;5029523;28;20238;-40
2022/01/13 07:48:49;;;;;;;41.93;17.90;;;6.40;99.90;;;;;;5054273;28;20199;-40
2022/01/13 07:51:17;;;;;;;38.43;17.27;;;6.40;99.90;;;;;;5043233;28;20206;-42
2022/01/13 07:53:43;;;;;;;37.10;17.67;;;6.40;99.90;;;;;;5056238;28;20313;-40
2022/01/13 07:56:11;;;;;;;36.37;18.10;;;6.40;99.90;;;;;;5041794;28;20222;-40
2022/01/13 07:58:40;;;;;;;34.67;17.10;;;6.40;99.90;;;;;;5041134;28;20203;-44
2022/01/13 08:01:07;;;;;;;38.33;17.17;;;6.40;99.90;;;;;;5038309;28;20742;-41
2022/01/13 08:03:34;;;;;;;40.13;16.37;;;6.40;99.90;;;;;;5033822;28;20210;-41
2022/01/13 08:06:03;;;;;;;34.63;16.70;;;6.40;99.90;;;;;;5049961;28;20199;-41
2022/01/13 08:08:30;;;;;;;39.40;17.70;;;6.40;99.90;;;;;;5051106;28;20210;-40
2022/01/13 08:10:57;;;;;;;36.80;15.13;;;6.40;99.90;;;;;;5054210;28;20272;-41
2022/01/13 08:13:25;;;;;;;35.13;16.03;;;6.30;99.90;;;;;;5046053;28;20976;-42
2022/01/13 08:15:54;;;;;;;33.03;15.00;;;6.30;99.90;;;;;;5045653;28;20202;-41
2022/01/13 08:21:05;;;;;;;37.53;16.30;;;6.30;99.90;;;;;;5044981;28;20328;-41
2022/01/13 08:23:32;;;;;;;40.17;16.43;;;6.30;99.90;;;;;;5052947;28;20195;-41
2022/01/13 08:25:58;;;;;;;33.63;16.87;;;6.30;99.90;;;;;;5046451;28;20205;-41
2022/01/13 08:28:28;;;;;;;30.77;16.23;;;6.30;99.90;;;;;;5055825;28;20210;-41
2022/01/13 08:30:56;;;;;;;37.10;17.00;;;6.30;99.90;;;;;;5047708;28;20209;-42
2022/01/13 08:33:22;;;;;;;28.37;14.60;;;6.30;99.90;;;;;;5041022;28;20210;-43
2022/01/13 08:35:50;;;;;;;34.33;15.70;;;6.30;99.90;;;;;;5051917;28;20268;-44
2022/01/13 08:38:18;;;;;;;40.63;18.13;;;6.20;99.90;;;;;;5043309;28;20242;-43
2022/01/13 08:40:46;;;;;;;33.70;15.37;;;6.20;99.90;;;;;;5050736;28;20286;-42
2022/01/13 08:43:13;;;;;;;32.80;17.10;;;6.30;99.90;;;;;;5045596;28;20598;-48
2022/01/13 08:45:42;;;;;;;33.97;15.87;;;6.20;99.90;;;;;;5046391;28;20246;-42
2022/01/13 08:48:10;;;;;;;36.40;16.90;;;6.20;99.90;;;;;;5034418;28;20203;-44
2022/01/13 08:50:36;;;;;;;36.67;16.23;;;6.20;99.90;;;;;;5053817;28;20203;-42
2022/01/13 08:53:04;;;;;;;33.87;15.33;;;6.10;99.90;;;;;;5045691;28;21014;-42
2022/01/13 08:55:31;;;;;;;26.80;13.60;;;6.10;99.90;;;;;;5051104;28;20218;-44
2022/01/13 08:57:58;;;;;;;35.97;16.67;;;6.00;99.90;;;;;;5053073;28;20655;-42
2022/01/13 09:00:25;;;;;;;37.57;15.63;;;6.00;99.90;;;;;;5049606;28;20233;-42
2022/01/13 09:02:53;;;;;;;35.87;15.70;;;6.00;99.90;;;;;;5037606;28;20215;-42
2022/01/13 09:05:21;;;;;;;35.53;15.87;;;5.90;99.90;;;;;;5052414;28;20211;-42
2022/01/13 09:07:48;;;;;;;34.73;15.57;;;5.90;99.90;;;;;;5045873;28;20211;-44
2022/01/13 09:10:17;;;;;;;40.50;16.30;;;5.90;99.90;;;;;;5044446;28;20273;-42
2022/01/13 09:12:44;;;;;;;34.77;16.17;;;5.90;99.90;;;;;;5045520;28;20227;-41
2022/01/13 09:15:17;;;;;;;38.17;15.93;;;5.90;99.90;;;;;;5044856;28;20215;-41
2022/01/13 09:17:45;;;;;;;32.07;13.57;;;5.90;99.90;;;;;;5047905;28;20285;-41
2022/01/13 09:20:16;;;;;;;31.03;15.07;;;5.90;99.90;;;;;;5042874;28;20188;-42
2022/01/13 09:22:43;;;;;;;41.70;15.53;;;5.90;99.90;;;;;;5051134;28;20630;-43
2022/01/13 09:25:11;;;;;;;32.47;13.73;;;5.90;99.90;;;;;;5046288;28;20280;-43
2022/01/13 09:27:40;;;;;;;37.37;15.93;;;5.90;99.90;;;;;;5040154;28;20203;-41
2022/01/13 09:30:09;;;;;;;35.40;14.80;;;5.90;99.90;;;;;;5044328;28;20333;-45
2022/01/13 09:32:36;;;;;;;36.10;15.53;;;5.90;99.90;;;;;;5049633;28;20207;-42
2022/01/13 09:35:04;;;;;;;41.60;14.87;;;5.90;99.90;;;;;;5033239;28;20758;-42
2022/01/13 09:37:32;;;;;;;33.73;14.37;;;6.00;99.90;;;;;;5051650;28;20210;-44
2022/01/13 09:39:59;;;;;;;33.97;15.13;;;5.90;99.90;;;;;;5033871;28;20813;-41
2022/01/13 09:42:27;;;;;;;30.57;13.90;;;5.90;99.90;;;;;;5041558;28;20203;-42
2022/01/13 09:44:54;;;;;;;34.00;13.73;;;5.90;99.90;;;;;;5046385;28;20221;-49
2022/01/13 09:47:21;;;;;;;38.30;13.80;;;5.90;99.90;;;;;;5044656;28;20253;-48
2022/01/13 09:49:50;;;;;;;34.83;14.17;;;6.00;99.90;;;;;;5040248;28;20226;-49
2022/01/13 09:52:17;;;;;;;33.30;14.27;;;6.00;99.90;;;;;;5047949;28;20663;-48
2022/01/13 09:54:45;;;;;;;38.13;15.77;;;6.00;99.90;;;;;;5045147;28;20222;-48
2022/01/13 09:57:12;;;;;;;31.77;12.97;;;6.00;99.90;;;;;;5048263;28;20199;-47
2022/01/13 09:59:38;;;;;;;34.67;14.13;;;6.00;99.90;;;;;;5048515;28;20290;-45
2022/01/13 10:02:05;;;;;;;34.27;14.67;;;6.10;99.90;;;;;;5045669;28;20203;-42
2022/01/13 10:04:45;;;;;;;33.47;14.90;;;6.10;99.90;;;;;;5041033;28;20225;-40
2022/01/13 10:07:13;;;;;;;35.37;15.33;;;6.10;99.90;;;;;;5039509;28;20277;-43
2022/01/13 10:09:53;;;;;;;30.83;14.37;;;6.10;99.90;;;;;;5049421;28;20221;-40
2022/01/13 10:12:25;;;;;;;37.77;15.40;;;6.10;99.90;;;;;;5049504;28;20313;-42
2022/01/13 10:17:48;;;;;;;31.17;13.70;;;6.10;99.90;;;;;;5048117;28;20191;-42
2022/01/13 10:20:17;;;;;;;34.20;13.17;;;6.10;99.90;;;;;;5041672;28;20212;-42
2022/01/13 10:22:44;;;;;;;32.73;14.47;;;6.20;99.90;;;;;;5040674;28;20214;-42
2022/01/13 10:25:31;;;;;;;35.43;14.93;;;6.20;99.90;;;;;;5049705;28;20699;-42
2022/01/13 10:28:14;;;;;;;35.23;13.43;;;6.20;99.90;;;;;;5044416;28;20509;-42
2022/01/13 10:30:41;;;;;;;37.53;14.27;;;6.20;99.90;;;;;;5055310;28;20824;-41
2022/01/13 10:33:18;;;;;;;40.47;14.67;;;6.20;99.90;;;;;;5048555;28;20667;-42
2022/01/13 10:35:46;;;;;;;34.87;13.67;;;6.20;99.90;;;;;;5047671;28;20582;-41
2022/01/13 10:38:16;;;;;;;36.47;15.53;;;6.20;99.90;;;;;;5039841;28;20724;-43
2022/01/13 10:40:47;;;;;;;41.40;15.97;;;6.20;99.90;;;;;;5043391;28;20206;-42
2022/01/13 10:43:16;;;;;;;41.03;15.97;;;6.30;99.90;;;;;;5046302;28;20214;-43
2022/01/13 10:45:49;;;;;;;36.83;13.97;;;6.30;99.90;;;;;;5050113;28;20218;-44
2022/01/13 10:48:21;;;;;;;44.63;14.93;;;6.30;99.90;;;;;;5042950;28;20705;-42
2022/01/13 10:50:51;;;;;;;41.00;16.20;;;6.30;99.90;;;;;;5044424;28;20282;-45
2022/01/13 10:53:22;;;;;;;39.77;15.33;;;6.30;99.90;;;;;;5048104;28;20215;-44
2022/01/13 10:55:54;;;;;;;39.67;15.07;;;6.30;99.90;;;;;;5055130;28;20218;-44
2022/01/13 10:58:25;;;;;;;36.07;14.30;;;6.30;99.90;;;;;;5053140;28;20194;-49
2022/01/13 11:00:53;;;;;;;41.63;17.17;;;6.30;99.90;;;;;;5044148;28;20286;-44
2022/01/13 11:03:21;;;;;;;37.67;15.90;;;6.30;99.90;;;;;;5043857;28;20203;-49
2022/01/13 11:05:51;;;;;;;44.10;17.60;;;6.30;99.90;;;;;;5053544;28;20225;-44
2022/01/13 11:08:27;;;;;;;38.33;16.83;;;6.30;99.90;;;;;;5048047;28;20223;-49
2022/01/13 11:10:57;;;;;;;34.17;14.30;;;6.30;99.90;;;;;;5037779;28;20202;-46
2022/01/13 11:13:28;;;;;;;42.70;17.23;;;6.30;99.90;;;;;;5057224;28;20229;-47
2022/01/13 11:15:56;;;;;;;47.23;18.23;;;6.30;99.90;;;;;;5055364;28;20212;-44
2022/01/13 11:18:26;;;;;;;42.80;17.67;;;6.30;99.90;;;;;;5043959;28;20209;-46
2022/01/13 11:20:53;;;;;;;40.63;15.87;;;6.30;99.90;;;;;;5047339;28;20202;-46
2022/01/13 11:23:21;;;;;;;40.97;16.63;;;6.30;99.90;;;;;;5056004;28;20659;-47
2022/01/13 11:25:51;;;;;;;42.67;17.83;;;6.40;99.90;;;;;;5031671;28;20686;-48
2022/01/13 11:28:20;;;;;;;41.80;18.03;;;6.40;99.90;;;;;;5055944;28;20199;-47
2022/01/13 11:30:49;;;;;;;37.17;15.37;;;6.40;99.90;;;;;;5042332;28;20198;-53
2022/01/13 11:33:16;;;;;;;41.77;16.53;;;6.40;99.90;;;;;;5051967;28;20202;-47
2022/01/13 11:35:49;;;;;;;46.90;16.57;;;6.40;99.90;;;;;;5051238;28;20198;-47
2022/01/13 11:38:20;;;;;;;39.03;15.83;;;6.40;99.90;;;;;;5043451;28;20207;-48
2022/01/13 11:40:48;;;;;;;39.07;15.10;;;6.40;99.90;;;;;;5030044;28;20576;-47
2022/01/13 11:43:30;;;;;;;38.60;14.73;;;6.40;99.90;;;;;;5045747;28;20480;-45
2022/01/13 11:46:11;;;;;;;42.17;17.13;;;6.40;99.90;;;;;;5045432;28;20294;-45
2022/01/13 11:48:41;;;;;;;38.00;16.23;;;6.40;99.90;;;;;;5053014;28;20680;-46
2022/01/13 11:51:14;;;;;;;38.60;15.60;;;6.50;99.90;;;;;;5049781;28;20203;-45
2022/01/13 11:53:53;;;;;;;36.73;15.33;;;6.50;99.90;;;;;;5047986;28;20229;-43
2022/01/13 11:56:22;;;;;;;42.23;16.63;;;6.50;99.90;;;;;;5028399;28;20229;-44
2022/01/13 11:58:51;;;;;;;37.13;16.17;;;6.50;99.90;;;;;;5054671;28;20207;-47
2022/01/13 12:01:20;;;;;;;30.57;13.83;;;6.50;99.90;;;;;;5045392;28;20210;-44
2022/01/13 12:03:49;;;;;;;38.60;15.60;;;6.50;99.90;;;;;;5052597;28;20226;-48
2022/01/13 12:06:40;;;;;;;37.27;16.60;;;6.50;99.90;;;;;;5042435;28;20803;-46
2022/01/13 12:09:09;;;;;;;39.10;15.97;;;6.50;99.90;;;;;;5049118;28;20198;-45
2022/01/13 12:11:39;;;;;;;40.60;18.33;;;6.60;99.90;;;;;;5044212;28;20207;-47
2022/01/13 12:14:43;;;;;;;40.20;16.73;;;6.60;99.90;;;;;;5048660;28;20214;-44
2022/01/13 12:17:25;;;;;;;44.37;16.80;;;6.60;99.90;;;;;;5046282;28;20209;-44
2022/01/13 12:20:00;;;;;;;36.03;15.13;;;6.50;99.90;;;;;;5052987;28;20672;-47
2022/01/13 12:22:41;;;;;;;40.67;16.87;;;6.50;99.90;;;;;;5039064;28;20213;-44
2022/01/13 12:25:11;;;;;;;36.70;15.93;;;6.60;99.90;;;;;;5045488;28;20218;-46
2022/01/13 12:27:48;;;;;;;37.30;15.23;;;6.60;99.90;;;;;;5038959;28;20611;-44
2022/01/13 12:30:19;;;;;;;33.17;15.83;;;6.60;99.90;;;;;;5044753;28;20206;-44
2022/01/13 12:32:47;;;;;;;38.37;16.10;;;6.60;99.90;;;;;;5064689;28;20277;-45
2022/01/13 12:35:16;;;;;;;37.90;15.23;;;6.60;99.90;;;;;;5042974;28;20229;-44
2022/01/13 12:37:57;;;;;;;37.77;16.83;;;6.60;99.90;;;;;;5050925;28;20217;-49
2022/01/13 12:40:25;;;;;;;40.53;16.23;;;6.60;99.90;;;;;;5047969;28;20956;-44
2022/01/13 12:42:53;;;;;;;36.70;15.07;;;6.60;99.90;;;;;;5040074;28;20207;-44
2022/01/13 12:45:32;;;;;;;37.73;16.20;;;6.60;99.90;;;;;;5049545;28;20480;-45
2022/01/13 12:48:02;;;;;;;37.40;15.67;;;6.60;99.90;;;;;;5048513;28;20733;-47
2022/01/13 12:50:32;;;;;;;38.77;15.33;;;6.60;99.90;;;;;;5051834;28;20222;-44
2022/01/13 12:53:08;;;;;;;40.50;14.50;;;6.60;99.90;;;;;;5047633;28;20210;-48
2022/01/13 12:55:35;;;;;;;34.57;14.43;;;6.60;99.90;;;;;;5047613;28;20229;-44
2022/01/13 12:58:03;;;;;;;35.53;15.27;;;6.70;99.90;;;;;;5033434;28;20293;-50
2022/01/13 13:00:32;;;;;;;43.20;15.17;;;6.70;99.90;;;;;;5051996;28;20198;-48